• Join FlightAware (Why Join?)
  • Login
  • US Flag 
11:02PM EDT


 

Airport Tracker/Info


-or-


 

Live Flight TrackerFlight Track Log ✈ CXA882 ✈ 09-Feb-2014 ✈ RCSS / TSA - ZSAM / XMN

Flight Track Log - Related Links

Times and Time Zones

All times are in EST time to prevent confusion due to time zone crossing. See the CXA882 flight status page for this flight to view local times or setup timezone preferences in your user account.

Time Position Orientation Groundspeed Altitude Reporting Facility
EST Latitude Longitude Course Direction KTS MPH feet Rate Location/Type
07:51AM 24.8599 121.5411 212° Southwest 253 291 13,400  Level FlightAware ADS-B (RCPO)
07:52AM 24.8151 121.5112 211° Southwest 288 331 14,500 2,040 Climbing FlightAware ADS-B (RCPO)
07:53AM 24.7683 121.4799 211° Southwest 298 343 16,200 2,520 Climbing FlightAware ADS-B (RCPO)
07:53AM 24.7247 121.4502 212° Southwest 303 349 17,900 2,460 Climbing FlightAware ADS-B (RCPO)
07:54AM 24.6745 121.4162 212° Southwest 309 356 19,500 2,520 Climbing FlightAware ADS-B (RCPO)
07:55AM 24.6327 121.3883 211° Southwest 309 356 21,000 2,280 Climbing FlightAware ADS-B (RCPO)
07:55AM 24.5962 121.3636 212° Southwest 321 369 22,500 1,920 Climbing FlightAware ADS-B (RCPO)
07:56AM 24.5320 121.3203 212° Southwest 333 383 23,600 1,620 Climbing FlightAware ADS-B (RCPO)
07:57AM 24.4745 121.2818 211° Southwest 340 391 24,800 1,680 Climbing FlightAware ADS-B (RCPO)
07:57AM 24.4128 121.2400 212° Southwest 338 389 26,100 1,860 Climbing FlightAware ADS-B (RCPO)
07:58AM 24.3928 121.2194 223° Southwest 317 365 26,700 1,620 Climbing FlightAware ADS-B (RCPO)
07:58AM 24.3767 121.1914 238° Southwest 307 353 27,200 780 Climbing FlightAware ADS-B (RCPO)
07:59AM 24.3490 121.1353 242° Southwest 334 384 27,500 360 Climbing FlightAware ADS-B (RCPO)
07:59AM 24.3183 121.0735 241° Southwest 358 412 27,700 360 Climbing FlightAware ADS-B (RCPO)
08:00AM 24.2857 121.0080 241° Southwest 371 427 28,000 180 Climbing FlightAware ADS-B (RCPO)
08:01AM 24.2533 120.9430 241° Southwest 374 430 28,000  Level FlightAware ADS-B (RCPO)
08:01AM 24.2191 120.8742 241° Southwest 374 430 28,000  Level FlightAware ADS-B (RCPO)
08:02AM 24.1898 120.8149 242° Southwest 374 430 28,000  Level FlightAware ADS-B (RCPO)
08:03AM 24.1572 120.7494 241° Southwest 375 432 28,000  Level FlightAware ADS-B (RCPO)
08:05AM 24.1699 120.6681 280° West  Level Estimated
08:06AM 24.1771 120.6221 280° West  Level Estimated
08:07AM 24.1842 120.5761 280° West  Level Estimated
08:08AM 24.1914 120.5300 280° West  Level Estimated
08:09AM 24.1985 120.4840 280° West  Level Estimated
08:10AM 24.2057 120.4380 280° West  Level Estimated
08:11AM 24.2127 120.3919 280° West  Level Estimated
08:12AM 24.2198 120.3459 280° West  Level Estimated
08:13AM 24.2269 120.2998 280° West  Level Estimated
08:14AM 24.2340 120.2538 280° West  Level Estimated
08:15AM 24.2410 120.2077 280° West  Level Estimated
08:16AM 24.2481 120.1616 280° West  Level Estimated
08:17AM 24.2551 120.1156 279° West  Level Estimated
08:18AM 24.2621 120.0695 279° West  Level Estimated
08:19AM 24.2691 120.0234 279° West  Level Estimated
08:20AM 24.2761 119.9773 279° West  Level Estimated
08:21AM 24.2830 119.9312 279° West  Level Estimated
08:22AM 24.2900 119.8851 279° West  Level Estimated
08:23AM 24.2969 119.8390 279° West  Level Estimated
08:24AM 24.3038 119.7929 279° West  Level Estimated
08:25AM 24.3107 119.7468 279° West  Level Estimated
08:26AM 24.3176 119.7006 279° West  Level Estimated
08:27AM 24.3245 119.6545 279° West  Level Estimated
08:28AM 24.3314 119.6084 279° West  Level Estimated
08:29AM 24.3382 119.5622 279° West  Level Estimated
08:30AM 24.3451 119.5161 279° West  Level Estimated
08:31AM 24.3519 119.4699 279° West  Level Estimated
08:32AM 24.3587 119.4238 279° West  Level Estimated
08:33AM 24.3655 119.3776 279° West  Level Estimated
08:34AM 24.3723 119.3315 279° West  Level Estimated
08:35AM 24.3791 119.2853 279° West  Level Estimated
08:36AM 24.3858 119.2391 279° West  Level Estimated
08:37AM 24.3926 119.1930 279° West  Level Estimated
08:38AM 24.3993 119.1468 279° West  Level Estimated
08:39AM 24.4060 119.1006 279° West  Level Estimated
08:40AM 24.4127 119.0544 279° West  Level Estimated
08:41AM 24.4194 119.0082 279° West  Level Estimated
08:42AM 24.4261 118.9620 279° West  Level Estimated
08:43AM 24.4327 118.9158 279° West  Level Estimated
08:44AM 24.4394 118.8696 279° West  Level Estimated
08:45AM 24.4460 118.8234 279° West  Level Estimated
08:46AM 24.4526 118.7772 279° West  Level Estimated
08:47AM 24.4592 118.7310 279° West  Level Estimated
08:48AM 24.4658 118.6847 279° West  Level Estimated
08:49AM 24.4724 118.6385 279° West  Level Estimated
08:50AM 24.4790 118.5923 279° West  Level Estimated
08:51AM 24.4855 118.5460 279° West  Level Estimated
08:52AM 24.4920 118.4998 279° West  Level Estimated
08:53AM 24.4986 118.4535 279° West  Level Estimated
08:54AM 24.5051 118.4073 279° West  Level Estimated
08:55AM 24.5115 118.3610 279° West  Level Estimated
08:56AM 24.5180 118.3147 279° West  Level Estimated
08:57AM 24.5245 118.2685 279° West  Level Estimated
08:58AM 24.5309 118.2222 279° West  Level Estimated
08:59AM 24.5374 118.1759 279° West  Level Estimated
09:00AM 24.5438 118.1296 279° West  Level Estimated
09:01AM 24.5440 118.1277 279° West  Level Estimated
09:02AM 24.5440 118.1277 193° South  Level Estimated
09:03AM 24.5440 118.1277 193° South  Level Estimated
09:04AM 24.5440 118.1277 193° South  Level Estimated
09:05AM 24.5440 118.1277 193° South  Level Estimated
09:06AM 24.5440 118.1277 193° South  Level Estimated
09:07AM 24.5440 118.1277 193° South  Level Estimated
09:08AM 24.5440 118.1277 193° South  Level Estimated